Time;durP1;ratioP1;P1;durP2;ratioP2;P2;SDS_P1;SDS_P2;PMS_P1;PMS_P2;Temp;Humidity;BMP_temperature;BMP_pressure;BME280_temperature;BME280_humidity;BME280_pressure;Samples;Min_cycle;Max_cycle;Signal;HPM_P1;HPM_P2
2023/08/05 00:01:47;;;;;;;0.87;0.87;;;;;;;24.21;62.36;97162.13;5053571;28;20324;-27
2023/08/05 00:04:13;;;;;;;1.13;1.00;;;;;;;24.21;62.32;97168.16;5065969;28;20207;-27
2023/08/05 00:06:40;;;;;;;0.90;0.90;;;;;;;24.16;62.19;97156.09;5053871;28;20252;-27
2023/08/05 00:09:06;;;;;;;0.90;0.90;;;;;;;24.21;62.25;97159.56;5057622;28;20233;-27
2023/08/05 00:11:33;;;;;;;0.93;0.93;;;;;;;24.21;62.17;97169.84;5050897;28;20204;-27
2023/08/05 00:13:59;;;;;;;0.90;0.90;;;;;;;24.21;62.02;97173.28;5060413;28;20232;-27
2023/08/05 00:16:26;;;;;;;1.00;1.00;;;;;;;24.22;62.46;97161.31;5054778;28;20209;-27
2023/08/05 00:18:53;;;;;;;1.10;1.00;;;;;;;24.20;62.61;97161.28;5058829;28;20645;-26
2023/08/05 00:21:20;;;;;;;0.97;0.97;;;;;;;24.20;62.67;97163.88;5063948;28;20200;-27
2023/08/05 00:23:47;;;;;;;1.03;1.03;;;;;;;24.21;62.51;97159.56;5058099;28;20277;-27
2023/08/05 00:26:13;;;;;;;1.23;1.10;;;;;;;24.17;62.44;97152.69;5056664;28;20744;-27
2023/08/05 00:28:40;;;;;;;0.90;0.90;;;;;;;24.22;62.11;97169.03;5052713;28;20303;-27
2023/08/05 00:31:08;;;;;;;0.90;0.90;;;;;;;24.21;62.22;97167.28;5061390;28;20254;-27
2023/08/05 00:33:35;;;;;;;0.90;0.90;;;;;;;24.22;62.24;97184.44;5057800;28;20224;-27
2023/08/05 00:36:01;;;;;;;0.90;0.90;;;;;;;24.22;62.19;97187.00;5057944;28;20270;-27
2023/08/05 00:38:28;;;;;;;0.90;0.90;;;;;;;24.22;62.36;97189.56;5056157;28;20312;-27
2023/08/05 00:40:54;;;;;;;0.93;0.93;;;;;;;24.21;62.52;97180.13;5053573;28;20201;-27
2023/08/05 00:43:21;;;;;;;0.90;0.90;;;;;;;24.20;62.30;97175.84;5063572;28;20633;-27
2023/08/05 00:45:47;;;;;;;1.00;1.00;;;;;;;24.22;62.52;97189.56;5064089;28;20205;-27
2023/08/05 00:48:14;;;;;;;0.90;0.90;;;;;;;24.18;62.52;97193.78;5064738;28;20710;-28
2023/08/05 00:50:41;;;;;;;0.80;0.80;;;;;;;24.21;62.05;97190.38;5061816;28;20700;-27
2023/08/05 00:53:07;;;;;;;1.00;1.00;;;;;;;24.22;62.18;97190.41;5037798;28;20217;-27
2023/08/05 00:55:34;;;;;;;0.93;0.83;;;;;;;24.16;62.64;97182.63;5055781;28;20250;-27
2023/08/05 00:58:00;;;;;;;0.90;0.90;;;;;;;24.22;62.50;97190.41;5045792;28;20217;-27
2023/08/05 01:00:27;;;;;;;1.20;1.10;;;;;;;24.21;62.43;97188.69;5042518;28;20193;-27
2023/08/05 01:02:53;;;;;;;0.97;0.97;;;;;;;24.22;62.47;97187.84;5057376;28;20288;-27
2023/08/05 01:05:20;;;;;;;1.00;1.00;;;;;;;24.17;62.34;97174.09;5059230;28;20711;-27
2023/08/05 01:07:47;;;;;;;1.93;1.20;;;;;;;24.22;62.29;97189.56;5046701;28;20278;-27
2023/08/05 01:10:13;;;;;;;1.17;1.07;;;;;;;24.23;62.51;97188.72;5020931;28;20271;-31
2023/08/05 01:12:41;;;;;;;0.80;0.80;;;;;;;24.22;61.99;97182.69;5047050;28;20250;-27
2023/08/05 01:15:08;;;;;;;1.00;1.00;;;;;;;24.23;62.24;97188.72;5053045;28;20587;-27
2023/08/05 01:17:35;;;;;;;0.90;0.80;;;;;;;24.22;62.53;97180.13;5052519;28;20233;-28
2023/08/05 01:20:01;;;;;;;1.00;1.00;;;;;;;24.20;62.42;97168.13;5062152;28;20671;-33
2023/08/05 01:22:34;;;;;;;0.90;0.90;;;;;;;24.23;62.47;97184.44;5025641;28;20205;-27
2023/08/05 01:25:05;;;;;;;1.00;0.90;;;;;;;24.22;62.42;97180.13;5053370;28;20264;-27
2023/08/05 01:27:34;;;;;;;1.00;1.00;;;;;;;24.22;62.38;97162.16;5059651;28;20201;-27
2023/08/05 01:30:01;;;;;;;1.00;0.93;;;;;;;24.22;62.41;97164.72;5023248;28;20200;-27
2023/08/05 01:32:27;;;;;;;1.00;0.97;;;;;;;24.19;62.05;97162.13;5036680;28;20196;-27
2023/08/05 01:34:54;;;;;;;0.87;0.87;;;;;;;24.19;62.06;97156.16;5057742;28;20233;-27
2023/08/05 01:37:21;;;;;;;2.47;0.97;;;;;;;24.20;62.60;97160.44;5045286;28;20280;-29
2023/08/05 01:39:47;;;;;;;1.30;1.20;;;;;;;24.19;62.19;97156.97;5056759;28;20698;-27
2023/08/05 01:42:14;;;;;;;0.90;0.90;;;;;;;24.19;62.61;97146.72;5053359;28;20201;-27
2023/08/05 01:44:41;;;;;;;0.90;0.90;;;;;;;24.19;62.56;97139.00;5044690;28;20204;-27
2023/08/05 01:47:07;;;;;;;1.10;1.00;;;;;;;24.18;62.57;97137.28;5060660;28;20208;-29
2023/08/05 01:49:35;;;;;;;0.90;0.90;;;;;;;24.20;62.53;97132.19;5056817;28;20227;-28
2023/08/05 01:52:02;;;;;;;1.20;1.00;;;;;;;24.14;62.28;97129.53;5062061;28;20277;-27
2023/08/05 01:54:29;;;;;;;0.90;0.90;;;;;;;24.17;62.49;97127.88;5055795;28;20232;-27
2023/08/05 01:56:55;;;;;;;1.10;1.00;;;;;;;24.19;62.27;97120.19;5058043;28;20231;-27
2023/08/05 01:59:22;;;;;;;0.90;0.90;;;;;;;24.19;62.51;97127.91;5052353;28;20228;-27
2023/08/05 02:01:48;;;;;;;0.90;0.90;;;;;;;24.19;62.07;97117.63;5056785;28;20235;-27
2023/08/05 02:04:15;;;;;;;0.93;0.93;;;;;;;24.18;62.31;97115.88;5055399;28;20635;-27
2023/08/05 02:06:42;;;;;;;0.90;0.90;;;;;;;24.12;62.53;97105.53;5055108;28;20681;-27
2023/08/05 02:09:08;;;;;;;1.07;0.90;;;;;;;24.18;62.40;97111.63;5059752;28;20209;-27
2023/08/05 02:11:35;;;;;;;0.90;0.90;;;;;;;24.18;62.24;97106.47;5061956;28;20205;-27
2023/08/05 02:14:02;;;;;;;0.93;0.93;;;;;;;24.19;62.29;97107.34;5057130;28;20205;-27
2023/08/05 02:16:29;;;;;;;1.00;1.00;;;;;;;24.19;62.72;97113.34;5035449;28;20207;-27
2023/08/05 02:18:56;;;;;;;1.00;0.90;;;;;;;24.18;62.35;97111.63;5045421;28;20674;-27
2023/08/05 02:21:23;;;;;;;0.90;0.90;;;;;;;24.20;62.48;97109.06;5057773;28;20208;-27
2023/08/05 02:23:49;;;;;;;0.80;0.80;;;;;;;24.20;62.54;97116.78;5059651;28;20209;-27
2023/08/05 02:26:16;;;;;;;0.80;0.80;;;;;;;24.18;62.38;97103.03;5060053;28;20281;-27
2023/08/05 02:28:44;;;;;;;1.10;1.00;;;;;;;24.21;62.06;97103.94;5057238;28;20651;-27
2023/08/05 02:31:10;;;;;;;0.80;0.80;;;;;;;24.21;62.73;97108.22;5056368;28;20263;-27
2023/08/05 02:33:37;;;;;;;0.80;0.80;;;;;;;24.17;62.48;97091.94;5059961;28;20232;-27
2023/08/05 02:36:03;;;;;;;0.80;0.80;;;;;;;24.21;62.25;97095.38;5052026;28;20579;-27
2023/08/05 02:38:30;;;;;;;0.90;0.90;;;;;;;24.21;62.49;97092.81;5050985;28;20256;-28
2023/08/05 02:40:57;;;;;;;0.83;0.83;;;;;;;24.21;62.59;97093.69;5051802;28;20269;-28
2023/08/05 02:43:24;;;;;;;0.80;0.80;;;;;;;24.20;62.55;97089.41;5051311;28;20224;-27
2023/08/05 02:45:54;;;;;;;0.80;0.80;;;;;;;24.21;62.42;97090.25;5055448;28;20228;-27
2023/08/05 02:48:24;;;;;;;0.80;0.80;;;;;;;24.20;62.18;97102.25;5033458;28;20221;-27
2023/08/05 02:50:51;;;;;;;0.80;0.80;;;;;;;24.18;62.45;97103.91;5055322;28;20201;-27
2023/08/05 02:53:18;;;;;;;0.70;0.70;;;;;;;24.20;62.61;97109.06;5054588;28;20635;-27
2023/08/05 02:55:44;;;;;;;0.90;0.90;;;;;;;24.20;62.59;97114.22;5063546;28;20197;-27
2023/08/05 02:58:11;;;;;;;0.90;0.90;;;;;;;24.16;62.52;97107.31;5067089;28;20589;-27
2023/08/05 03:00:38;;;;;;;1.00;1.00;;;;;;;24.22;62.24;97120.22;5066464;28;20552;-27
2023/08/05 03:03:04;;;;;;;0.80;0.80;;;;;;;24.22;62.43;97127.94;5058812;28;20678;-31
2023/08/05 03:05:31;;;;;;;0.90;0.90;;;;;;;24.21;62.50;97137.34;5056644;28;20203;-27
2023/08/05 03:07:58;;;;;;;0.80;0.80;;;;;;;24.17;62.16;97140.72;5055244;28;20250;-27
2023/08/05 03:10:24;;;;;;;0.80;0.80;;;;;;;24.20;62.17;97152.72;5058746;28;20232;-27
2023/08/05 03:12:51;;;;;;;0.83;0.83;;;;;;;24.21;62.44;97159.56;5062177;28;20402;-28
2023/08/05 03:15:18;;;;;;;0.70;0.70;;;;;;;24.20;62.17;97169.00;5058833;28;20229;-27
2023/08/05 03:17:44;;;;;;;0.90;0.90;;;;;;;24.20;62.53;97169.00;5050361;28;20247;-27
2023/08/05 03:20:24;;;;;;;0.80;0.80;;;;;;;24.20;62.22;97173.25;5062127;28;20212;-27
2023/08/05 03:22:54;;;;;;;0.73;0.73;;;;;;;24.19;62.39;97164.69;5047604;28;20200;-27
2023/08/05 03:25:21;;;;;;;0.70;0.70;;;;;;;24.20;62.31;97160.44;5059411;28;20197;-27
2023/08/05 03:27:49;;;;;;;0.73;0.73;;;;;;;24.19;62.26;97151.84;5053290;28;20645;-27
2023/08/05 03:30:16;;;;;;;0.87;0.87;;;;;;;24.17;62.21;97153.56;5054195;28;20201;-27
2023/08/05 03:32:42;;;;;;;0.90;0.90;;;;;;;24.16;62.52;97153.53;5057565;28;20201;-27
2023/08/05 03:35:09;;;;;;;0.90;0.90;;;;;;;24.17;62.41;97157.81;5067634;28;20287;-27
2023/08/05 03:37:35;;;;;;;0.80;0.80;;;;;;;24.17;62.78;97156.13;5064025;28;20633;-27
2023/08/05 03:40:02;;;;;;;0.80;0.80;;;;;;;24.18;62.31;97162.09;5067121;28;20248;-27
2023/08/05 03:42:29;;;;;;;0.93;0.93;;;;;;;24.17;62.63;97163.81;5057941;28;20327;-27
2023/08/05 03:44:55;;;;;;;0.87;0.87;;;;;;;24.16;62.42;97174.91;5059791;28;20556;-27
2023/08/05 03:47:22;;;;;;;0.80;0.80;;;;;;;24.17;62.31;97170.66;5064737;28;20236;-27
2023/08/05 03:49:49;;;;;;;0.80;0.80;;;;;;;24.18;62.60;97183.50;5062607;28;20190;-27
2023/08/05 03:52:15;;;;;;;0.90;0.90;;;;;;;24.18;62.69;97190.34;5054302;28;20260;-27
2023/08/05 03:54:42;;;;;;;0.90;0.90;;;;;;;24.16;62.37;97182.63;5057406;28;20207;-28
2023/08/05 03:57:09;;;;;;;1.00;1.00;;;;;;;24.18;62.57;97187.78;5067890;28;20224;-27
2023/08/05 03:59:35;;;;;;;0.80;0.80;;;;;;;24.17;62.33;97184.38;5056409;28;20221;-27
2023/08/05 04:02:03;;;;;;;0.90;0.90;;;;;;;24.18;62.58;97173.25;5064009;28;20201;-28
2023/08/05 04:04:29;;;;;;;0.80;0.80;;;;;;;24.17;62.69;97160.38;5054081;28;20259;-27
2023/08/05 04:06:56;;;;;;;0.80;0.80;;;;;;;24.17;62.17;97158.69;5054389;28;20738;-27
2023/08/05 04:09:24;;;;;;;0.83;0.83;;;;;;;24.18;62.67;97156.97;5061976;28;20221;-27
2023/08/05 04:11:53;;;;;;;0.90;0.90;;;;;;;24.16;62.50;97150.97;5054362;28;20205;-27
2023/08/05 04:14:20;;;;;;;0.80;0.80;;;;;;;24.17;62.32;97144.97;5062120;28;20671;-27
2023/08/05 04:16:51;;;;;;;0.90;0.90;;;;;;;24.12;62.67;97142.34;5056268;28;20732;-27
2023/08/05 04:19:18;;;;;;;0.90;0.90;;;;;;;24.16;62.34;97151.81;5058283;28;20237;-28
2023/08/05 04:21:47;;;;;;;0.90;0.90;;;;;;;24.16;62.64;97156.94;5060892;28;20293;-27
2023/08/05 04:24:16;;;;;;;0.90;0.90;;;;;;;24.18;62.13;97156.97;5055374;28;20200;-27
2023/08/05 04:26:42;;;;;;;0.87;0.87;;;;;;;24.16;62.56;97138.97;5057011;28;20266;-27
2023/08/05 04:29:10;;;;;;;0.80;0.80;;;;;;;24.17;62.39;97151.00;5053785;28;20643;-27
2023/08/05 04:31:42;;;;;;;1.13;1.00;;;;;;;24.16;62.42;97162.09;5056359;28;20628;-27
2023/08/05 04:34:09;;;;;;;1.00;0.97;;;;;;;24.18;62.35;97160.41;5062007;28;20201;-27
2023/08/05 04:36:35;;;;;;;0.80;0.80;;;;;;;24.18;62.62;97170.69;5061968;28;20219;-27
2023/08/05 04:39:03;;;;;;;0.70;0.70;;;;;;;24.17;62.23;97174.09;5058836;28;20228;-27
2023/08/05 04:41:30;;;;;;;0.90;0.90;;;;;;;24.16;62.22;97176.66;5047642;28;20227;-27
2023/08/05 04:43:57;;;;;;;0.90;0.90;;;;;;;24.18;62.62;97178.38;5041143;28;20201;-27
2023/08/05 04:46:23;;;;;;;0.90;0.90;;;;;;;24.17;62.55;97178.34;5053473;28;20201;-27
2023/08/05 04:48:50;;;;;;;0.90;0.90;;;;;;;24.17;62.69;97174.09;5062049;28;20271;-27
2023/08/05 04:51:17;;;;;;;0.80;0.80;;;;;;;24.17;62.57;97180.94;5053540;28;20720;-27
2023/08/05 04:53:43;;;;;;;0.80;0.80;;;;;;;24.17;62.63;97184.38;5046974;28;20201;-27
2023/08/05 04:56:10;;;;;;;0.90;0.90;;;;;;;24.14;62.68;97175.75;5060451;28;20197;-27
2023/08/05 04:58:37;;;;;;;0.80;0.80;;;;;;;24.17;62.42;97173.22;5053702;28;20617;-27
2023/08/05 05:01:04;;;;;;;0.80;0.80;;;;;;;24.18;62.44;97173.25;5063277;28;20251;-27
2023/08/05 05:03:30;;;;;;;1.00;1.00;;;;;;;24.17;62.23;97158.69;5052534;28;20201;-27
2023/08/05 05:05:58;;;;;;;0.90;0.90;;;;;;;24.17;62.38;97161.25;5064406;28;20220;-27
2023/08/05 05:08:25;;;;;;;0.90;0.90;;;;;;;24.18;62.68;97146.69;5052594;28;20303;-27
2023/08/05 05:10:51;;;;;;;0.73;0.73;;;;;;;24.18;62.41;97139.88;5056117;28;20242;-27
2023/08/05 05:13:18;;;;;;;0.93;0.90;;;;;;;24.18;62.58;97142.44;5053148;28;20292;-27
2023/08/05 05:15:46;;;;;;;0.90;0.90;;;;;;;24.17;62.61;97139.84;5053998;28;20629;-27
2023/08/05 05:18:13;;;;;;;0.97;0.90;;;;;;;24.17;62.67;97139.84;5058836;28;20311;-27
2023/08/05 05:20:39;;;;;;;0.90;0.90;;;;;;;24.16;62.66;97136.41;5059949;28;20585;-27
2023/08/05 05:23:06;;;;;;;0.70;0.70;;;;;;;24.16;62.75;97131.25;5061840;28;20204;-27
2023/08/05 05:25:33;;;;;;;0.90;0.90;;;;;;;24.17;62.46;97127.00;5061757;28;20197;-27
2023/08/05 05:27:59;;;;;;;0.80;0.80;;;;;;;24.17;62.41;97129.56;5061994;28;20221;-28
2023/08/05 05:30:26;;;;;;;0.90;0.90;;;;;;;24.15;62.62;97129.56;5055380;28;20224;-27
2023/08/05 05:32:52;;;;;;;0.90;0.90;;;;;;;24.17;62.59;97134.72;5052809;28;20228;-27
2023/08/05 05:35:19;;;;;;;0.80;0.80;;;;;;;24.16;62.71;97127.84;5052615;28;20211;-31
2023/08/05 05:37:46;;;;;;;0.70;0.70;;;;;;;24.17;62.41;97130.44;5046592;28;20260;-28
2023/08/05 05:40:12;;;;;;;0.80;0.80;;;;;;;24.15;62.34;97124.41;5060699;28;20223;-27
2023/08/05 05:42:41;;;;;;;1.00;1.00;;;;;;;24.15;62.62;97124.41;5062356;28;20647;-27
2023/08/05 05:45:08;;;;;;;0.80;0.80;;;;;;;24.16;62.62;97138.13;5061107;28;20200;-27
2023/08/05 05:47:35;;;;;;;0.77;0.77;;;;;;;24.16;62.80;97136.41;5035677;28;20197;-27
2023/08/05 05:50:03;;;;;;;1.00;1.00;;;;;;;24.16;62.49;97138.13;5063826;28;20634;-27
2023/08/05 05:52:30;;;;;;;0.90;0.90;;;;;;;24.15;62.70;97142.41;5053105;28;20200;-27
2023/08/05 05:54:56;;;;;;;0.80;0.80;;;;;;;24.17;62.45;97150.13;5061141;28;20205;-27
2023/08/05 05:57:23;;;;;;;0.77;0.77;;;;;;;24.16;62.52;97148.41;5056314;28;20573;-27
2023/08/05 05:59:50;;;;;;;0.90;0.90;;;;;;;24.17;62.17;97151.00;5064753;28;20464;-27
2023/08/05 06:02:16;;;;;;;0.87;0.87;;;;;;;24.16;62.33;97150.97;5053233;28;20200;-27
2023/08/05 06:04:47;;;;;;;0.90;0.90;;;;;;;24.17;62.34;97147.53;5058121;28;20282;-28
2023/08/05 06:07:14;;;;;;;0.83;0.83;;;;;;;24.17;62.58;97150.13;5057186;28;20216;-27
2023/08/05 06:09:40;;;;;;;1.00;0.90;;;;;;;24.16;62.74;97153.53;5051333;28;20690;-27
2023/08/05 06:12:10;;;;;;;0.70;0.70;;;;;;;24.11;62.55;97150.91;5057192;28;20200;-27
2023/08/05 06:14:37;;;;;;;0.90;0.90;;;;;;;24.14;62.37;97157.78;5056044;28;20240;-27
2023/08/05 06:17:03;;;;;;;1.27;0.80;;;;;;;24.16;62.63;97159.50;5057524;28;20204;-27
2023/08/05 06:19:30;;;;;;;0.90;0.90;;;;;;;24.00;62.41;97137.06;5042670;28;20275;-27
2023/08/05 06:21:57;;;;;;;0.73;0.73;;;;;;;24.16;62.73;97172.34;5044128;28;20236;-27
2023/08/05 06:24:23;;;;;;;0.97;0.97;;;;;;;24.16;62.41;97182.63;5054017;28;20233;-27
2023/08/05 06:26:50;;;;;;;0.80;0.80;;;;;;;24.17;62.65;97183.50;5042163;28;20285;-28
2023/08/05 06:29:17;;;;;;;0.80;0.80;;;;;;;24.16;62.88;97185.19;5054676;28;20564;-36
2023/08/05 06:31:44;;;;;;;0.90;0.90;;;;;;;24.17;62.61;97191.19;5041983;28;20205;-27
2023/08/05 06:34:10;;;;;;;0.87;0.87;;;;;;;24.18;62.41;97187.78;5051255;28;20253;-27
2023/08/05 06:36:37;;;;;;;0.80;0.80;;;;;;;24.18;62.63;97185.22;5051739;28;20590;-27
2023/08/05 06:39:03;;;;;;;0.80;0.80;;;;;;;24.17;62.44;97179.22;5044232;28;20251;-27
2023/08/05 06:41:30;;;;;;;2.87;0.87;;;;;;;24.15;62.62;97165.50;5045667;28;20225;-27
2023/08/05 06:43:57;;;;;;;1.00;1.00;;;;;;;24.19;62.56;97174.13;5050026;28;20205;-27
2023/08/05 06:46:23;;;;;;;0.80;0.80;;;;;;;24.16;62.63;97169.78;5051423;28;20201;-28
2023/08/05 06:48:50;;;;;;;0.90;0.90;;;;;;;24.18;62.69;97178.38;5056385;28;20216;-27
2023/08/05 06:51:16;;;;;;;0.67;0.67;;;;;;;24.18;62.52;97174.94;5033855;28;20640;-27
2023/08/05 06:53:44;;;;;;;0.80;0.80;;;;;;;24.18;62.28;97172.38;5059598;28;20232;-33
2023/08/05 06:56:11;;;;;;;0.90;0.90;;;;;;;24.18;62.84;97172.38;5054067;28;20201;-32
2023/08/05 06:58:37;;;;;;;0.83;0.83;;;;;;;24.17;62.58;97171.53;5051125;28;20229;-28
2023/08/05 07:01:04;;;;;;;0.80;0.80;;;;;;;24.18;62.62;97180.06;5054629;28;20318;-27
2023/08/05 07:03:31;;;;;;;1.23;0.93;;;;;;;24.18;62.72;97177.50;5064444;28;20266;-28
2023/08/05 07:05:58;;;;;;;0.80;0.80;;;;;;;24.17;62.57;97171.53;5054488;28;20200;-27
2023/08/05 07:08:25;;;;;;;0.80;0.80;;;;;;;24.18;62.46;97180.06;5054719;28;20225;-27
2023/08/05 07:10:55;;;;;;;0.90;0.90;;;;;;;24.17;62.59;97186.94;5047259;28;20200;-27
2023/08/05 07:13:22;;;;;;;1.00;1.00;;;;;;;24.18;62.80;97191.22;5049874;28;20193;-27
2023/08/05 07:15:49;;;;;;;0.80;0.80;;;;;;;24.19;62.35;97189.53;5058578;28;20193;-27
2023/08/05 07:18:15;;;;;;;0.70;0.70;;;;;;;24.17;62.63;97199.78;5043161;28;20712;-27
2023/08/05 07:20:42;;;;;;;0.90;0.90;;;;;;;24.13;62.71;97190.28;5057508;28;20217;-27
2023/08/05 07:23:08;;;;;;;1.03;0.93;;;;;;;24.14;62.40;97188.59;5050614;28;20296;-27
2023/08/05 07:25:35;;;;;;;0.90;0.90;;;;;;;24.14;62.88;97192.03;5056020;28;20654;-27
2023/08/05 07:28:02;;;;;;;0.80;0.80;;;;;;;24.14;62.35;97196.28;5048856;28;20658;-27
2023/08/05 07:30:28;;;;;;;0.93;0.93;;;;;;;24.15;62.33;97196.31;5041925;28;20999;-34
2023/08/05 07:32:55;;;;;;;0.70;0.70;;;;;;;24.15;62.75;97198.00;5039965;28;20207;-29
2023/08/05 07:35:22;;;;;;;0.77;0.77;;;;;;;24.11;62.31;97192.00;5039777;28;20285;-27
2023/08/05 07:37:48;;;;;;;0.80;0.80;;;;;;;24.15;62.44;97201.44;5045452;28;20224;-28
2023/08/05 07:40:15;;;;;;;0.80;0.80;;;;;;;24.15;62.74;97200.56;5045040;28;20227;-28
2023/08/05 07:42:45;;;;;;;0.90;0.90;;;;;;;24.15;62.44;97201.44;5042282;28;21251;-27
2023/08/05 07:45:16;;;;;;;0.80;0.80;;;;;;;24.16;62.38;97204.88;5043627;28;20683;-28
2023/08/05 07:47:44;;;;;;;0.90;0.90;;;;;;;24.15;62.71;97203.13;5042505;28;20224;-27
2023/08/05 07:50:11;;;;;;;0.90;0.90;;;;;;;24.14;62.18;97191.16;5041836;28;20199;-27
2023/08/05 07:52:37;;;;;;;0.80;0.80;;;;;;;24.15;62.40;97192.88;5042597;28;20640;-27
2023/08/05 07:55:04;;;;;;;0.90;0.90;;;;;;;24.15;62.66;97196.31;5042272;28;20208;-27
2023/08/05 07:57:31;;;;;;;0.97;0.97;;;;;;;24.04;62.44;97173.91;5043800;28;20237;-28
2023/08/05 07:59:57;;;;;;;1.10;1.00;;;;;;;24.15;62.39;97183.47;5042440;28;20785;-27
2023/08/05 08:02:25;;;;;;;0.83;0.83;;;;;;;24.14;62.43;97168.03;5043887;28;20208;-28
2023/08/05 08:04:54;;;;;;;1.10;1.10;;;;;;;24.15;62.54;97167.19;5046388;28;20577;-27
2023/08/05 08:07:24;;;;;;;0.73;0.73;;;;;;;24.15;62.36;97174.91;5050326;28;20631;-27
2023/08/05 08:09:51;;;;;;;0.80;0.80;;;;;;;24.11;62.53;97173.16;5045092;28;20615;-27
2023/08/05 08:12:17;;;;;;;0.90;0.90;;;;;;;24.15;62.41;97174.91;5041670;28;20288;-27
2023/08/05 08:14:44;;;;;;;0.80;0.80;;;;;;;24.16;62.40;97180.06;5044798;28;20201;-28
2023/08/05 08:17:11;;;;;;;0.90;0.90;;;;;;;24.16;62.21;97185.19;5026305;28;20752;-27
2023/08/05 08:19:37;;;;;;;0.90;0.90;;;;;;;24.16;62.30;97185.19;5039961;28;20760;-27
2023/08/05 08:22:04;;;;;;;0.90;0.90;;;;;;;24.17;62.40;97188.63;5043318;28;20252;-28
2023/08/05 08:24:31;;;;;;;0.90;0.90;;;;;;;24.17;62.37;97188.63;5041985;28;20202;-27
2023/08/05 08:26:57;;;;;;;1.47;1.17;;;;;;;24.16;62.82;97179.22;5043430;28;20308;-27
2023/08/05 08:29:24;;;;;;;1.00;1.00;;;;;;;24.16;62.49;97187.75;5042786;28;20718;-27
2023/08/05 08:31:50;;;;;;;1.00;1.00;;;;;;;24.17;62.61;97192.06;5043279;28;20640;-28
2023/08/05 08:34:17;;;;;;;1.13;1.03;;;;;;;24.16;62.43;97186.91;5043111;28;20211;-27
2023/08/05 08:36:44;;;;;;;1.10;1.10;;;;;;;24.16;62.24;97187.75;5041797;28;20294;-28
2023/08/05 08:39:10;;;;;;;1.17;1.10;;;;;;;24.16;62.42;97184.34;5040207;28;20251;-30
2023/08/05 08:41:42;;;;;;;1.10;1.10;;;;;;;24.15;62.46;97191.19;5042811;28;20333;-27
2023/08/05 08:44:09;;;;;;;3.00;1.00;;;;;;;24.16;62.35;97180.06;5043548;28;20208;-27
2023/08/05 08:46:36;;;;;;;1.63;1.20;;;;;;;24.16;62.68;97181.78;5041950;28;20262;-27
2023/08/05 08:49:03;;;;;;;1.20;1.10;;;;;;;24.15;62.56;97178.34;5043505;28;20239;-31
2023/08/05 08:51:29;;;;;;;1.30;1.20;;;;;;;24.15;62.32;97180.91;5036230;28;20205;-27
2023/08/05 08:53:56;;;;;;;1.30;1.03;;;;;;;24.16;62.75;97177.47;5023325;28;20286;-27
2023/08/05 08:56:24;;;;;;;1.00;1.00;;;;;;;24.17;62.50;97176.66;5041940;28;20529;-27
2023/08/05 08:58:50;;;;;;;0.90;0.90;;;;;;;24.16;62.26;97179.22;5025311;28;20237;-27
2023/08/05 09:01:17;;;;;;;1.00;1.00;;;;;;;24.14;62.26;97174.06;5026143;28;20224;-27
2023/08/05 09:03:44;;;;;;;1.17;1.17;;;;;;;24.17;62.59;97175.78;5024334;28;20301;-27
2023/08/05 09:06:10;;;;;;;1.10;1.00;;;;;;;24.15;62.31;97159.50;5026096;28;20312;-27
2023/08/05 09:08:37;;;;;;;2.87;1.10;;;;;;;24.17;62.62;97170.66;5042551;28;20260;-27
2023/08/05 09:11:04;;;;;;;1.00;1.00;;;;;;;24.16;62.38;97174.06;5043317;28;20205;-28
2023/08/05 09:13:30;;;;;;;1.00;1.00;;;;;;;24.15;62.55;97168.06;5042977;28;20291;-28
2023/08/05 09:15:57;;;;;;;1.03;1.00;;;;;;;24.16;62.43;97166.38;5041920;28;20270;-27
2023/08/05 09:18:24;;;;;;;1.23;1.17;;;;;;;24.15;62.31;97160.38;5005514;28;20239;-31
2023/08/05 09:20:50;;;;;;;1.10;1.10;;;;;;;24.17;62.13;97165.53;5043438;28;20217;-27
2023/08/05 09:23:17;;;;;;;0.90;0.90;;;;;;;24.17;62.24;97157.81;5041640;28;20678;-27
2023/08/05 09:25:47;;;;;;;1.20;1.10;;;;;;;24.16;62.23;97158.66;5040853;28;20214;-30
2023/08/05 09:28:16;;;;;;;1.43;1.10;;;;;;;24.16;62.18;97168.94;5041642;28;20294;-27
2023/08/05 09:30:42;;;;;;;1.07;0.97;;;;;;;24.15;62.65;97165.50;5008254;28;20229;-27
2023/08/05 09:33:09;;;;;;;1.30;1.20;;;;;;;24.15;62.30;97155.22;5026825;28;20708;-28
2023/08/05 09:35:35;;;;;;;1.00;1.00;;;;;;;24.16;62.59;97154.38;5042746;28;20292;-31
2023/08/05 09:38:03;;;;;;;1.20;1.10;;;;;;;24.15;62.08;97137.25;5043221;28;20228;-27
2023/08/05 09:40:32;;;;;;;0.90;0.90;;;;;;;24.15;62.30;97137.25;5042902;28;20229;-27
2023/08/05 09:42:59;;;;;;;1.20;1.10;;;;;;;24.14;62.20;97135.53;5043553;28;20212;-35
2023/08/05 09:45:28;;;;;;;1.10;1.00;;;;;;;24.16;62.35;97141.53;5041194;28;20232;-28
2023/08/05 09:48:03;;;;;;;1.03;1.00;;;;;;;24.16;62.25;97136.41;5040533;28;20270;-31
2023/08/05 09:50:31;;;;;;;1.17;1.10;;;;;;;24.17;62.21;97137.28;5039212;28;20204;-27
2023/08/05 09:52:59;;;;;;;1.20;1.00;;;;;;;24.16;61.86;97127.84;5041257;28;20522;-27
2023/08/05 09:55:28;;;;;;;0.83;0.83;;;;;;;24.15;62.35;97134.69;5043150;28;20232;-31
2023/08/05 09:57:56;;;;;;;0.97;0.97;;;;;;;24.15;62.09;97132.13;5036805;28;20270;-27
2023/08/05 10:00:23;;;;;;;2.70;1.20;;;;;;;24.14;62.08;97138.13;5006247;28;20232;-27
2023/08/05 10:02:49;;;;;;;2.53;1.10;;;;;;;24.16;62.30;97125.28;5031831;28;20278;-27
2023/08/05 10:05:16;;;;;;;1.37;1.10;;;;;;;24.15;62.21;97121.84;5023429;28;20267;-27
2023/08/05 10:07:43;;;;;;;0.90;0.90;;;;;;;24.15;62.50;97126.97;5040312;28;20717;-31
2023/08/05 10:10:16;;;;;;;1.23;1.20;;;;;;;24.15;62.50;97121.84;5041039;28;20209;-27
2023/08/05 10:12:55;;;;;;;1.60;1.23;;;;;;;24.12;62.37;97119.25;5025108;28;20210;-27
2023/08/05 10:15:26;;;;;;;0.90;0.90;;;;;;;23.95;62.24;97089.03;5005239;28;20199;-37
2023/08/05 10:17:52;;;;;;;1.07;1.07;;;;;;;24.17;62.53;97119.31;5021727;28;20792;-34
2023/08/05 10:20:19;;;;;;;1.00;1.00;;;;;;;24.17;62.24;97121.88;5032778;28;20290;-31
2023/08/05 10:23:00;;;;;;;1.83;1.17;;;;;;;24.18;62.65;97121.00;5045577;28;20201;-28
2023/08/05 10:25:42;;;;;;;0.97;0.97;;;;;;;24.18;62.57;97124.47;5041135;28;20287;-27
2023/08/05 10:28:10;;;;;;;1.30;1.20;;;;;;;24.19;62.40;97120.19;5042740;28;20217;-28
2023/08/05 10:30:41;;;;;;;1.30;1.10;;;;;;;24.19;62.51;97122.75;5041269;28;20235;-28
2023/08/05 10:33:08;;;;;;;1.47;1.37;;;;;;;24.19;62.27;97120.19;5040428;28;20244;-27
2023/08/05 10:35:42;;;;;;;1.00;1.00;;;;;;;24.20;62.37;97111.63;5041837;28;20782;-28
2023/08/05 10:38:16;;;;;;;1.20;1.10;;;;;;;24.20;62.21;97109.94;5040424;28;20224;-27
2023/08/05 10:40:56;;;;;;;1.60;1.20;;;;;;;24.21;62.36;97106.53;5038810;28;20224;-39
2023/08/05 10:43:31;;;;;;;1.30;1.20;;;;;;;23.88;62.48;97046.16;5036893;28;20663;-28
2023/08/05 10:45:59;;;;;;;1.27;1.10;;;;;;;24.22;62.18;97102.25;5039471;28;20240;-27
2023/08/05 10:48:30;;;;;;;1.67;1.13;;;;;;;24.22;62.29;97099.69;5040719;28;20425;-27
2023/08/05 10:50:57;;;;;;;1.40;1.30;;;;;;;24.21;62.49;97092.81;5039740;28;20201;-27
2023/08/05 10:53:24;;;;;;;1.10;1.00;;;;;;;24.20;62.21;97076.56;5040962;28;20228;-27
2023/08/05 10:55:54;;;;;;;1.40;1.30;;;;;;;24.21;62.49;97077.41;5039512;28;20242;-36
2023/08/05 10:58:23;;;;;;;1.33;1.17;;;;;;;24.19;62.37;97074.81;5043647;28;20221;-27
2023/08/05 11:00:59;;;;;;;1.07;1.07;;;;;;;24.15;62.63;97070.50;5040446;28;20799;-27
2023/08/05 11:03:29;;;;;;;1.10;1.10;;;;;;;24.20;62.12;97075.69;5045227;28;20315;-27
2023/08/05 11:06:03;;;;;;;1.10;1.10;;;;;;;24.18;62.30;97069.66;5039367;28;20208;-27
2023/08/05 11:08:31;;;;;;;1.47;1.37;;;;;;;24.18;62.52;97069.66;5041251;28;20233;-27
2023/08/05 11:11:11;;;;;;;0.90;0.90;;;;;;;24.17;62.14;97071.38;5043995;28;20204;-32
2023/08/05 11:13:38;;;;;;;1.33;1.20;;;;;;;24.16;62.47;97053.41;5046141;28;20251;-29
2023/08/05 11:16:06;;;;;;;0.93;0.93;;;;;;;24.16;62.30;97049.09;5045318;28;20263;-27
2023/08/05 11:18:33;;;;;;;1.27;1.17;;;;;;;24.17;62.71;97048.28;5044406;28;20228;-30
2023/08/05 11:21:01;;;;;;;1.17;1.07;;;;;;;24.16;62.18;97043.13;5042836;28;20301;-36
2023/08/05 11:23:28;;;;;;;1.03;1.03;;;;;;;24.16;62.24;97043.97;5045401;28;20266;-27
2023/08/05 11:25:55;;;;;;;1.03;1.03;;;;;;;24.18;62.31;97046.56;5045622;28;20232;-27
2023/08/05 11:28:21;;;;;;;1.90;1.23;;;;;;;24.16;62.41;97040.56;4996367;28;20585;-27
2023/08/05 11:30:48;;;;;;;1.10;1.10;;;;;;;24.17;62.80;97042.28;5045948;28;20210;-27
2023/08/05 11:33:15;;;;;;;1.37;1.10;;;;;;;24.16;62.78;97043.97;5043391;28;20258;-28
2023/08/05 11:35:46;;;;;;;1.17;1.10;;;;;;;24.13;62.76;97036.22;5042983;28;20214;-27